Time;durP1;ratioP1;P1;durP2;ratioP2;P2;SDS_P1;SDS_P2;PMS_P1;PMS_P2;Temp;Humidity;BMP_temperature;BMP_pressure;BME280_temperature;BME280_humidity;BME280_pressure;Samples;Min_cycle;Max_cycle;Signal;HPM_P1;HPM_P2
2022/10/14 00:01:29;;;;;;;25.77;20.80;;;;;;;14.54;85.61;101277.13;3576158;40;20056;-63
2022/10/14 00:03:55;;;;;;;27.42;21.65;;;;;;;14.55;86.23;101277.00;3582324;39;20313;-63
2022/10/14 00:06:26;;;;;;;28.25;21.65;;;;;;;14.11;85.56;101201.72;3577522;40;20060;-63
2022/10/14 00:08:52;;;;;;;23.27;20.52;;;;;;;14.57;85.34;101282.34;3577912;40;20059;-63
2022/10/14 00:11:27;;;;;;;24.98;21.38;;;;;;;14.54;85.08;101283.41;3579082;40;20048;-63
2022/10/14 00:13:59;;;;;;;24.42;20.75;;;;;;;14.54;85.68;101288.81;3582819;39;20052;-63
2022/10/14 00:16:31;;;;;;;25.95;21.90;;;;;;;14.53;85.40;101276.28;3576110;40;20055;-63
2022/10/14 00:18:58;;;;;;;25.15;20.85;;;;;;;13.87;85.46;101166.47;3577612;40;20060;-63
2022/10/14 00:21:24;;;;;;;25.10;21.63;;;;;;;14.50;85.73;101279.16;3579413;40;20056;-63
2022/10/14 00:23:50;;;;;;;26.42;20.90;;;;;;;14.53;85.59;101286.25;3581131;40;20070;-63
2022/10/14 00:26:26;;;;;;;27.42;21.30;;;;;;;14.55;85.62;101285.13;3575260;40;20068;-63
2022/10/14 00:28:52;;;;;;;24.90;20.95;;;;;;;14.56;85.10;101278.78;3577906;40;20060;-63
2022/10/14 00:31:18;;;;;;;24.95;21.23;;;;;;;14.55;85.25;101274.31;3575568;40;20058;-62
2022/10/14 00:33:45;;;;;;;26.05;22.35;;;;;;;14.53;84.88;101273.56;3577986;40;20280;-63
2022/10/14 00:36:14;;;;;;;27.85;21.73;;;;;;;14.02;85.67;101178.91;3576644;40;20087;-63
2022/10/14 00:38:40;;;;;;;24.85;21.00;;;;;;;14.56;85.56;101272.50;3578018;40;20067;-62
2022/10/14 00:41:07;;;;;;;28.10;22.55;;;;;;;14.54;85.48;101264.47;3577132;40;20072;-63
2022/10/14 00:44:05;;;;;;;28.33;22.33;;;;;;;14.57;84.91;101261.56;3577258;40;20407;-63
2022/10/14 00:46:44;;;;;;;25.77;22.05;;;;;;;14.45;85.59;101246.16;3577942;40;20066;-62
2022/10/14 00:49:36;;;;;;;24.85;21.67;;;;;;;14.53;84.96;101251.94;3577529;40;20449;-62
2022/10/14 00:52:09;;;;;;;28.33;21.88;;;;;;;14.55;85.65;101251.81;3577786;40;20408;-63
2022/10/14 00:54:53;;;;;;;26.58;22.58;;;;;;;14.52;85.77;101247.47;3578329;40;20488;-62
2022/10/14 00:57:21;;;;;;;28.60;23.25;;;;;;;14.47;85.61;101244.22;3580231;40;20060;-62
2022/10/14 00:59:47;;;;;;;28.70;22.98;;;;;;;14.53;85.91;101249.22;3580267;40;20048;-63
2022/10/14 01:02:13;;;;;;;29.08;23.80;;;;;;;14.50;86.28;101238.59;3577022;40;20076;-62
2022/10/14 01:04:43;;;;;;;27.95;23.00;;;;;;;14.37;85.91;101221.53;3577948;40;20318;-62
2022/10/14 01:07:54;;;;;;;26.90;21.98;;;;;;;14.48;86.14;101237.81;3576134;40;20438;-62
2022/10/14 01:10:49;;;;;;;31.00;23.67;;;;;;;14.46;86.21;101237.09;3577674;40;20056;-62
2022/10/14 01:13:40;;;;;;;30.17;23.60;;;;;;;14.46;86.25;101231.69;3577945;40;20092;-64
2022/10/14 01:16:18;;;;;;;31.33;24.23;;;;;;;14.45;86.71;101238.03;3578156;40;20060;-63
2022/10/14 01:19:08;;;;;;;33.65;24.63;;;;;;;14.45;86.49;101235.34;3577542;40;20363;-63
2022/10/14 01:21:58;;;;;;;28.02;23.63;;;;;;;14.44;86.40;101227.34;3576876;40;20100;-63
2022/10/14 01:25:05;;;;;;;27.83;23.63;;;;;;;14.42;86.76;101219.31;3576645;40;20395;-63
2022/10/14 01:28:21;;;;;;;31.60;24.70;;;;;;;14.43;86.84;101209.38;3546286;40;20106;-63
2022/10/14 01:31:01;;;;;;;30.17;24.88;;;;;;;14.08;86.86;101146.06;3498949;40;20051;-63
2022/10/14 01:33:39;;;;;;;30.08;24.42;;;;;;;14.40;87.12;101196.97;3534075;40;20556;-63
2022/10/14 01:36:16;;;;;;;31.02;25.50;;;;;;;14.32;87.02;101178.56;3566657;40;20068;-64
2022/10/14 01:39:20;;;;;;;33.97;24.85;;;;;;;14.37;87.00;101186.34;3578241;40;20144;-63
2022/10/14 01:41:59;;;;;;;33.67;25.17;;;;;;;14.41;87.04;101193.25;3578222;40;20126;-63
2022/10/14 01:44:30;;;;;;;34.55;25.38;;;;;;;14.30;87.41;101166.13;3578995;40;20088;-63
2022/10/14 01:46:59;;;;;;;31.95;25.60;;;;;;;14.35;87.18;101180.19;3579068;40;20052;-63
2022/10/14 01:49:41;;;;;;;32.03;25.00;;;;;;;14.31;87.42;101174.13;3577106;40;20055;-63
2022/10/14 01:52:19;;;;;;;33.60;25.92;;;;;;;14.29;87.73;101169.81;3579637;40;20064;-63
2022/10/14 01:54:54;;;;;;;31.30;25.05;;;;;;;13.69;87.53;101063.25;3577991;40;20054;-62
2022/10/14 01:57:30;;;;;;;33.65;24.75;;;;;;;14.37;87.63;101180.94;3576923;40;20052;-63
2022/10/14 01:59:58;;;;;;;34.33;24.27;;;;;;;14.38;87.68;101177.25;3576446;40;20052;-62
2022/10/14 02:02:25;;;;;;;31.98;25.00;;;;;;;14.38;87.77;101179.97;3576221;40;20048;-63
2022/10/14 02:04:51;;;;;;;32.17;23.98;;;;;;;13.86;87.84;101091.78;3577945;40;20064;-62
2022/10/14 02:07:41;;;;;;;34.63;25.27;;;;;;;14.33;87.92;101166.75;3579208;40;20063;-62
2022/10/14 02:11:13;;;;;;;34.45;27.00;;;;;;;14.38;88.13;101177.25;3577966;40;20064;-62
2022/10/14 02:14:10;;;;;;;32.88;24.73;;;;;;;14.38;87.83;101174.56;3578722;40;20135;-62
2022/10/14 02:17:02;;;;;;;31.80;24.08;;;;;;;14.39;88.21;101165.44;3582638;39;20048;-62
2022/10/14 02:19:41;;;;;;;31.98;25.73;;;;;;;14.40;88.46;101156.38;3576736;40;20061;-62
2022/10/14 02:22:30;;;;;;;35.15;24.73;;;;;;;14.43;88.09;101166.09;3579443;40;20063;-62
2022/10/14 02:25:28;;;;;;;35.08;26.63;;;;;;;14.42;87.65;101159.81;3577936;40;20056;-62
2022/10/14 02:27:59;;;;;;;30.42;23.90;;;;;;;14.43;88.57;101158.88;3577235;40;20060;-62
2022/10/14 02:30:31;;;;;;;34.58;24.65;;;;;;;14.44;88.00;101157.88;3582045;39;20122;-62
2022/10/14 02:33:00;;;;;;;34.00;26.67;;;;;;;14.44;88.52;101146.22;3582776;39;20212;-62
2022/10/14 02:35:32;;;;;;;33.33;24.45;;;;;;;14.47;88.23;101152.25;3579185;40;20088;-62
2022/10/14 02:37:59;;;;;;;34.78;27.20;;;;;;;14.49;88.34;101158.38;3578754;40;20064;-62
2022/10/14 02:40:49;;;;;;;32.63;24.73;;;;;;;13.89;87.98;101051.00;3580790;40;20179;-62
2022/10/14 02:43:16;;;;;;;35.60;24.38;;;;;;;14.49;88.16;101158.38;3580049;40;20052;-62
2022/10/14 02:45:43;;;;;;;34.13;23.45;;;;;;;14.47;88.50;101159.50;3576907;40;20068;-62
2022/10/14 02:48:10;;;;;;;36.45;24.50;;;;;;;14.42;88.27;101142.72;3578784;40;20369;-62
2022/10/14 02:50:37;;;;;;;34.80;23.95;;;;;;;13.98;88.49;101068.41;3580063;40;20063;-62
2022/10/14 02:53:03;;;;;;;33.20;22.58;;;;;;;14.49;88.55;101144.88;3577966;40;20514;-62
2022/10/14 02:55:28;;;;;;;38.15;23.85;;;;;;;13.82;88.34;101036.22;3580040;40;20059;-62
2022/10/14 02:57:54;;;;;;;33.92;24.52;;;;;;;14.37;88.71;101121.44;3577981;40;20402;-62
2022/10/14 03:00:21;;;;;;;37.63;22.90;;;;;;;14.49;88.95;101136.75;3584045;40;20082;-62
2022/10/14 03:02:47;;;;;;;31.92;22.85;;;;;;;14.49;88.94;101133.19;3579096;39;20393;-61
2022/10/14 03:05:12;;;;;;;35.38;23.33;;;;;;;14.49;88.66;101134.03;3577275;40;21676;-61
2022/10/14 03:07:38;;;;;;;36.58;24.23;;;;;;;14.52;88.67;101135.69;3575944;40;20340;-61
2022/10/14 03:10:04;;;;;;;34.10;23.27;;;;;;;14.51;89.03;101129.44;3579783;40;20052;-61
2022/10/14 03:12:30;;;;;;;29.67;22.90;;;;;;;14.53;89.35;101132.03;3580186;40;20052;-61
2022/10/14 03:14:55;;;;;;;31.63;22.45;;;;;;;14.49;89.02;101115.09;3577697;40;20060;-61
2022/10/14 03:17:21;;;;;;;29.17;21.88;;;;;;;14.57;89.44;101120.88;3578243;40;20052;-61
2022/10/14 03:19:47;;;;;;;30.77;22.00;;;;;;;14.57;88.67;101114.59;3580944;40;20519;-60
2022/10/14 03:22:12;;;;;;;34.45;22.83;;;;;;;14.57;88.30;101110.03;3577677;40;20052;-61
2022/10/14 03:24:38;;;;;;;30.13;21.33;;;;;;;14.58;88.53;101110.91;3578738;40;20071;-60
2022/10/14 03:27:04;;;;;;;31.55;21.35;;;;;;;14.59;88.88;101113.50;3578135;40;20685;-60
2022/10/14 03:29:29;;;;;;;27.35;20.80;;;;;;;14.50;88.68;101087.09;3582335;40;20064;-60
2022/10/14 03:31:55;;;;;;;34.15;21.48;;;;;;;14.60;88.16;101104.41;3581937;40;20047;-60
2022/10/14 03:34:20;;;;;;;26.55;20.73;;;;;;;14.63;88.62;101108.72;3582282;40;20398;-60
2022/10/14 03:36:46;;;;;;;26.92;20.98;;;;;;;13.94;88.31;100992.97;3577212;40;20273;-60
2022/10/14 03:39:12;;;;;;;29.23;20.98;;;;;;;14.58;89.13;101095.53;3579546;40;20045;-59
2022/10/14 03:41:38;;;;;;;25.95;20.02;;;;;;;13.85;88.77;100974.72;3577477;40;20063;-60
2022/10/14 03:44:04;;;;;;;29.23;21.25;;;;;;;13.87;88.75;100980.88;3580890;40;20064;-60
2022/10/14 03:46:30;;;;;;;25.08;19.38;;;;;;;14.50;88.66;101086.25;3578036;40;20079;-60
2022/10/14 03:48:55;;;;;;;31.38;20.80;;;;;;;14.56;88.96;101086.69;3578453;40;20048;-60
2022/10/14 03:51:21;;;;;;;26.70;21.13;;;;;;;14.54;89.17;101076.94;3576663;40;20287;-60
2022/10/14 03:53:47;;;;;;;26.20;19.33;;;;;;;13.96;88.87;100976.66;3579270;40;20079;-60
2022/10/14 03:56:13;;;;;;;26.75;20.15;;;;;;;14.56;89.13;101081.28;3580383;40;20067;-60
2022/10/14 03:58:38;;;;;;;22.25;18.88;;;;;;;14.57;88.82;101083.00;3582358;40;20043;-59
2022/10/14 04:01:04;;;;;;;26.50;19.67;;;;;;;14.57;89.46;101083.00;3578004;40;20060;-60
2022/10/14 04:03:30;;;;;;;25.15;19.00;;;;;;;14.56;88.75;101081.28;3584512;39;20055;-59
2022/10/14 04:05:56;;;;;;;24.63;18.83;;;;;;;14.54;89.15;101079.66;3579716;40;20376;-60
2022/10/14 04:08:22;;;;;;;24.38;18.63;;;;;;;14.54;89.85;101075.09;3576239;40;20300;-59
2022/10/14 04:10:54;;;;;;;25.90;20.17;;;;;;;14.56;89.28;101081.28;3578840;40;20055;-59
2022/10/14 04:13:21;;;;;;;22.70;17.83;;;;;;;14.57;89.82;101072.16;3577480;40;20044;-59
2022/10/14 04:15:48;;;;;;;25.77;18.88;;;;;;;14.57;89.89;101071.31;3579985;40;20314;-61
2022/10/14 04:18:13;;;;;;;22.63;18.35;;;;;;;14.59;89.75;101075.63;3578055;40;20294;-62
2022/10/14 04:20:39;;;;;;;23.40;18.63;;;;;;;14.62;89.73;101080.81;3580878;40;20059;-61
2022/10/14 04:23:05;;;;;;;22.75;17.95;;;;;;;14.60;89.67;101076.50;3579908;40;20052;-62
2022/10/14 04:25:31;;;;;;;24.50;18.58;;;;;;;13.85;89.43;100939.59;3579004;40;20084;-62
2022/10/14 04:27:57;;;;;;;23.48;18.30;;;;;;;14.60;89.44;101071.09;3578665;39;20067;-62
2022/10/14 04:30:22;;;;;;;23.92;17.13;;;;;;;14.58;90.13;101063.06;3576895;40;20433;-62
2022/10/14 04:32:48;;;;;;;33.55;24.33;;;;;;;14.58;90.08;101063.06;3576739;40;20064;-62
2022/10/14 04:35:14;;;;;;;30.73;23.73;;;;;;;13.88;89.91;100938.50;3577862;40;20068;-62
2022/10/14 04:37:39;;;;;;;23.23;17.95;;;;;;;14.60;90.17;101063.81;3578031;40;20353;-61
2022/10/14 04:40:05;;;;;;;22.42;17.02;;;;;;;14.60;89.99;101065.66;3580392;40;20355;-62
2022/10/14 04:42:31;;;;;;;20.92;16.50;;;;;;;14.62;90.26;101063.72;3580095;40;20052;-62
2022/10/14 04:44:57;;;;;;;22.13;16.90;;;;;;;14.60;89.42;101061.13;3577002;40;20052;-62
2022/10/14 04:47:22;;;;;;;21.75;16.10;;;;;;;14.50;89.93;101033.00;3578584;40;20063;-66
2022/10/14 04:49:49;;;;;;;26.15;16.05;;;;;;;14.63;90.32;101052.78;3578643;40;20298;-66
2022/10/14 04:52:14;;;;;;;19.58;15.27;;;;;;;14.66;90.12;101056.25;3579470;40;20056;-68
2022/10/14 04:54:40;;;;;;;18.38;15.80;;;;;;;13.99;89.75;100944.00;3578446;40;20081;-66
2022/10/14 04:57:05;;;;;;;18.70;15.20;;;;;;;14.67;89.68;101048.00;3579523;40;20064;-66
2022/10/14 04:59:31;;;;;;;18.10;14.55;;;;;;;14.65;90.00;101040.97;3580671;40;20065;-66
2022/10/14 05:01:57;;;;;;;16.15;13.48;;;;;;;14.65;nan;101035.53;3582842;39;20060;-66
2022/10/14 05:04:22;;;;;;;16.55;13.52;;;;;;;14.63;90.07;101032.97;3576043;40;20049;-64
2022/10/14 05:06:48;;;;;;;16.42;14.32;;;;;;;14.66;90.15;101045.41;3577404;40;20068;-64
2022/10/14 05:09:13;;;;;;;18.88;13.57;;;;;;;14.68;89.87;101035.31;3578702;40;20064;-64
2022/10/14 05:11:39;;;;;;;16.65;13.13;;;;;;;14.70;89.82;101027.97;3580391;40;20272;-64
2022/10/14 05:14:05;;;;;;;16.20;13.10;;;;;;;14.70;90.08;101030.66;3580847;40;20064;-64
2022/10/14 05:16:30;;;;;;;15.15;12.48;;;;;;;14.69;89.96;101020.81;3582235;40;20102;-63
2022/10/14 05:18:56;;;;;;;15.90;12.27;;;;;;;14.72;89.70;101026.00;3576675;40;20060;-63
2022/10/14 05:21:22;;;;;;;15.68;12.65;;;;;;;14.15;89.79;100931.03;3579571;39;20059;-63
2022/10/14 05:23:47;;;;;;;16.88;12.43;;;;;;;14.73;89.86;101022.31;3575515;40;20319;-63
2022/10/14 05:26:13;;;;;;;15.20;11.77;;;;;;;14.73;89.38;101022.31;3584369;40;20067;-63
2022/10/14 05:28:38;;;;;;;12.52;11.02;;;;;;;14.71;89.93;101021.56;3582512;39;20068;-62
2022/10/14 05:31:05;;;;;;;13.32;11.45;;;;;;;14.70;89.66;101011.72;3581133;40;20055;-62
2022/10/14 05:33:31;;;;;;;13.38;11.77;;;;;;;14.69;89.95;101002.75;3585405;39;20055;-63
2022/10/14 05:35:57;;;;;;;12.15;10.88;;;;;;;14.66;90.09;100996.72;3580056;40;21188;-63
2022/10/14 05:38:23;;;;;;;13.05;10.65;;;;;;;14.73;90.42;101001.53;3583227;40;20063;-63
2022/10/14 05:40:56;;;;;;;12.35;10.35;;;;;;;14.70;89.59;100998.19;3580273;40;20056;-63
2022/10/14 05:43:26;;;;;;;13.93;10.50;;;;;;;14.68;89.74;100992.03;3584206;40;20091;-63
2022/10/14 05:45:52;;;;;;;11.75;9.55;;;;;;;14.14;90.06;100899.59;3581338;40;20056;-63
2022/10/14 05:48:19;;;;;;;11.52;10.32;;;;;;;14.71;90.18;100986.38;3583468;40;20325;-63
2022/10/14 05:50:44;;;;;;;13.63;10.02;;;;;;;14.71;90.57;100980.97;3581731;39;20044;-64
2022/10/14 05:53:10;;;;;;;11.38;10.07;;;;;;;14.73;90.17;100979.03;3579066;40;20062;-63
2022/10/14 05:55:37;;;;;;;11.43;10.13;;;;;;;14.73;90.05;100979.03;3581114;40;20539;-63
2022/10/14 05:58:03;;;;;;;12.82;10.35;;;;;;;14.73;90.53;100984.44;3580456;40;21341;-63
2022/10/14 06:00:29;;;;;;;12.43;9.85;;;;;;;14.71;90.47;100970.16;3582068;40;20174;-63
2022/10/14 06:02:57;;;;;;;11.07;9.73;;;;;;;14.24;90.72;100904.28;3581421;40;20072;-62
2022/10/14 06:05:23;;;;;;;13.02;10.15;;;;;;;14.73;90.17;100984.44;3579260;40;20048;-63
2022/10/14 06:07:49;;;;;;;11.45;9.90;;;;;;;14.73;89.70;100993.41;3580061;40;20067;-63
2022/10/14 06:10:15;;;;;;;11.18;9.50;;;;;;;14.72;90.00;100977.31;3581434;40;20053;-63
2022/10/14 06:12:40;;;;;;;13.85;10.20;;;;;;;14.74;89.85;100973.47;3585491;39;20092;-63
2022/10/14 06:15:07;;;;;;;11.60;9.98;;;;;;;14.38;89.71;100909.50;3585590;40;20079;-64
2022/10/14 06:17:32;;;;;;;11.20;9.43;;;;;;;14.74;89.85;100967.19;3579969;40;20075;-64
2022/10/14 06:19:58;;;;;;;11.18;10.07;;;;;;;14.73;90.13;100968.19;3576074;39;21445;-64
2022/10/14 06:22:23;;;;;;;10.88;9.55;;;;;;;14.75;90.01;100963.53;3580699;40;20058;-64
2022/10/14 06:24:49;;;;;;;10.50;9.48;;;;;;;14.74;89.86;100967.19;3581153;39;20052;-64
2022/10/14 06:27:15;;;;;;;11.95;9.77;;;;;;;14.68;89.78;100954.16;3583259;40;20056;-64
2022/10/14 06:29:40;;;;;;;11.00;9.90;;;;;;;14.69;90.05;100955.88;3583006;39;20112;-63
2022/10/14 06:32:08;;;;;;;10.50;9.43;;;;;;;14.81;90.11;100971.16;3576803;40;20372;-64
2022/10/14 06:34:34;;;;;;;14.40;9.85;;;;;;;14.82;89.63;100970.19;3578862;40;20056;-63
2022/10/14 06:37:00;;;;;;;10.82;9.45;;;;;;;14.77;89.70;100964.25;3577215;40;20078;-64
2022/10/14 06:39:26;;;;;;;10.65;9.25;;;;;;;14.32;89.46;100891.91;3579172;40;20092;-63
2022/10/14 06:41:53;;;;;;;10.65;8.73;;;;;;;14.78;89.72;100965.97;3579365;40;20314;-64
2022/10/14 06:44:20;;;;;;;10.93;9.82;;;;;;;14.58;89.75;100926.94;3581505;40;20084;-64
2022/10/14 06:46:45;;;;;;;11.30;9.00;;;;;;;14.74;89.75;100948.25;3579850;40;20395;-64
2022/10/14 06:49:12;;;;;;;13.70;9.45;;;;;;;14.82;89.33;100959.38;3581135;40;20060;-64
2022/10/14 06:51:40;;;;;;;11.45;9.82;;;;;;;14.83;89.43;100956.53;3581384;40;20084;-64
2022/10/14 06:54:06;;;;;;;11.38;10.07;;;;;;;14.84;89.96;100960.09;3579649;40;20627;-63
2022/10/14 06:56:33;;;;;;;11.93;9.68;;;;;;;14.86;89.42;100953.59;3581865;40;20418;-64
2022/10/14 06:58:59;;;;;;;11.25;9.88;;;;;;;14.25;89.59;100849.25;3579122;40;20358;-64
2022/10/14 07:01:25;;;;;;;14.00;9.68;;;;;;;14.88;89.86;100953.47;3579870;39;20059;-65
2022/10/14 07:03:50;;;;;;;12.30;10.75;;;;;;;14.90;89.67;100948.78;3579084;40;20259;-64
2022/10/14 07:06:16;;;;;;;11.73;10.52;;;;;;;14.92;89.85;100938.72;3579256;40;20060;-64
2022/10/14 07:08:42;;;;;;;12.73;9.38;;;;;;;14.95;89.07;100952.00;3582567;40;20091;-64
2022/10/14 07:11:08;;;;;;;10.40;8.98;;;;;;;14.89;89.24;100925.41;3579750;39;20304;-64
2022/10/14 07:13:34;;;;;;;11.27;9.90;;;;;;;14.97;89.20;100932.94;3581104;40;20055;-64
2022/10/14 07:15:59;;;;;;;10.30;9.00;;;;;;;14.96;88.79;100932.06;3580592;40;20161;-64
2022/10/14 07:18:25;;;;;;;11.75;9.40;;;;;;;14.92;89.42;100936.00;3577772;40;20371;-64
2022/10/14 07:20:51;;;;;;;9.77;8.63;;;;;;;15.00;89.26;100948.94;3579841;40;20051;-64
2022/10/14 07:23:17;;;;;;;11.30;8.63;;;;;;;15.01;88.96;100946.13;3578041;40;20168;-64
2022/10/14 07:25:43;;;;;;;11.68;9.77;;;;;;;15.04;88.50;100948.59;3579680;40;20383;-64
2022/10/14 07:28:09;;;;;;;10.93;9.60;;;;;;;15.06;88.56;100952.03;3579688;40;20044;-63
2022/10/14 07:30:34;;;;;;;10.88;8.85;;;;;;;14.71;88.33;100894.38;3580792;40;20060;-63
2022/10/14 07:33:00;;;;;;;10.18;9.10;;;;;;;15.03;88.26;100937.84;3578526;40;20334;-63
2022/10/14 07:35:26;;;;;;;9.50;8.60;;;;;;;15.07;88.91;100956.47;3585708;40;20056;-64
2022/10/14 07:37:53;;;;;;;11.07;9.32;;;;;;;15.08;88.55;100966.31;3583947;39;20059;-63
2022/10/14 07:40:20;;;;;;;10.07;9.05;;;;;;;15.11;88.91;100958.94;3585542;39;20076;-63
2022/10/14 07:42:46;;;;;;;9.75;8.80;;;;;;;15.13;88.35;100954.25;3580831;40;20059;-63
2022/10/14 07:45:17;;;;;;;10.18;9.18;;;;;;;15.14;88.72;100945.16;3580422;40;20072;-63
2022/10/14 07:47:49;;;;;;;11.15;8.90;;;;;;;15.17;88.16;100951.19;3581788;40;20048;-63
2022/10/14 07:50:15;;;;;;;9.38;8.45;;;;;;;15.20;88.35;100950.09;3579125;40;20060;-63
2022/10/14 07:52:40;;;;;;;11.77;9.05;;;;;;;15.23;88.37;100939.88;3581295;40;20070;-63
2022/10/14 07:55:07;;;;;;;11.20;8.80;;;;;;;15.27;87.76;100940.47;3576915;40;20049;-63
2022/10/14 07:57:32;;;;;;;9.55;8.60;;;;;;;15.20;88.16;100931.97;3578414;40;20052;-64
2022/10/14 07:59:58;;;;;;;10.65;8.93;;;;;;;15.31;87.76;100940.09;3577725;40;20090;-63
2022/10/14 08:02:24;;;;;;;10.38;9.25;;;;;;;15.34;88.35;100930.88;3577446;40;20296;-63
2022/10/14 08:04:54;;;;;;;11.20;8.88;;;;;;;15.35;88.01;100931.72;3579401;39;20047;-63
2022/10/14 08:07:21;;;;;;;9.57;8.25;;;;;;;15.40;87.35;100929.53;3579174;40;20068;-64
2022/10/14 08:09:47;;;;;;;9.50;8.40;;;;;;;15.36;87.34;100923.50;3577526;40;20109;-63
2022/10/14 08:12:13;;;;;;;10.60;8.38;;;;;;;15.42;87.64;100927.56;3580923;40;20059;-63
2022/10/14 08:14:39;;;;;;;10.00;8.23;;;;;;;15.47;88.04;100939.72;3579153;40;20052;-64
2022/10/14 08:17:04;;;;;;;9.45;8.50;;;;;;;15.50;86.76;100938.63;3580685;40;20068;-63
2022/10/14 08:19:30;;;;;;;12.38;9.00;;;;;;;15.54;87.29;100932.84;3576350;40;20059;-64
2022/10/14 08:21:55;;;;;;;9.85;8.73;;;;;;;15.60;87.13;100919.78;3578324;40;20071;-63
2022/10/14 08:24:21;;;;;;;9.50;7.95;;;;;;;15.59;85.97;100916.22;3583320;40;20307;-64
2022/10/14 08:26:57;;;;;;;9.02;8.13;;;;;;;15.60;86.72;100915.22;3578643;40;20060;-63
2022/10/14 08:29:24;;;;;;;11.50;8.90;;;;;;;15.65;86.40;100917.56;3577145;40;20044;-63
2022/10/14 08:31:51;;;;;;;10.30;8.30;;;;;;;15.66;85.84;100921.97;3577558;40;20077;-63
2022/10/14 08:34:19;;;;;;;9.25;8.13;;;;;;;15.19;85.88;100846.31;3578526;40;20084;-63
2022/10/14 08:36:47;;;;;;;9.18;8.27;;;;;;;15.19;86.22;100838.19;3580054;40;20422;-64
2022/10/14 08:39:16;;;;;;;9.73;8.80;;;;;;;15.71;86.66;100925.22;3577111;40;20296;-63
2022/10/14 08:42:06;;;;;;;8.80;7.95;;;;;;;15.74;85.66;100927.69;3579283;40;20059;-64
2022/10/14 08:44:50;;;;;;;10.13;8.68;;;;;;;14.97;85.97;100779.53;3577259;40;20049;-63
2022/10/14 08:47:25;;;;;;;10.18;8.25;;;;;;;15.82;85.19;100917.06;3580162;40;20068;-62
2022/10/14 08:50:28;;;;;;;10.45;9.13;;;;;;;15.85;85.79;100918.66;3579798;40;20063;-62
2022/10/14 08:53:08;;;;;;;9.55;8.65;;;;;;;15.84;85.74;100915.09;3578318;40;20055;-62
2022/10/14 08:55:46;;;;;;;8.73;7.63;;;;;;;15.90;85.85;100916.44;3579249;40;20435;-62
2022/10/14 08:58:22;;;;;;;13.88;8.52;;;;;;;15.93;85.09;100927.88;3578820;40;20100;-62
2022/10/14 09:00:52;;;;;;;9.30;8.25;;;;;;;15.96;85.45;100914.06;3575570;40;20060;-62
2022/10/14 09:03:25;;;;;;;10.35;8.30;;;;;;;16.01;85.48;100924.53;3577084;40;20060;-62
2022/10/14 09:06:04;;;;;;;;;;;;;;;15.98;84.85;100909.41;3578695;40;20053;-63
2022/10/14 09:08:41;;;;;;;13.20;11.75;;;;;;;16.05;85.10;100917.00;3584104;40;19932;-62
2022/10/14 09:11:15;;;;;;;11.35;8.13;;;;;;;16.08;84.79;100908.59;3581701;40;20092;-62
2022/10/14 09:13:47;;;;;;;9.25;7.97;;;;;;;16.11;84.79;100903.81;3581023;40;20045;-62
2022/10/14 09:16:20;;;;;;;10.77;8.05;;;;;;;16.14;85.60;100903.56;3578880;40;20052;-63
2022/10/14 09:18:54;;;;;;;;;;;;;;;16.14;85.08;100913.53;3578028;40;20161;-62
2022/10/14 09:21:33;;;;;;;11.35;7.68;;;;;;;16.17;84.54;100907.84;3587392;40;19969;-62
2022/10/14 09:24:17;;;;;;;8.95;7.97;;;;;;;16.23;84.65;100901.91;3578509;40;20087;-62
2022/10/14 09:26:50;;;;;;;9.05;8.10;;;;;;;15.56;84.33;100787.25;3574704;40;20112;-62
2022/10/14 09:29:46;;;;;;;11.15;7.35;;;;;;;16.23;84.22;100902.75;3576783;40;20141;-62
2022/10/14 09:32:23;;;;;;;9.32;7.53;;;;;;;15.68;84.64;100792.69;3575853;40;20299;-62
2022/10/14 09:34:51;;;;;;;10.27;9.05;;;;;;;16.31;84.61;100891.28;3578800;40;20073;-62
2022/10/14 09:37:24;;;;;;;9.65;6.88;;;;;;;16.27;84.71;100892.53;3582274;40;20060;-62
2022/10/14 09:39:54;;;;;;;8.70;6.72;;;;;;;16.25;84.05;100895.34;3588548;40;20060;-62
2022/10/14 09:42:32;;;;;;;7.07;6.40;;;;;;;16.26;84.97;100896.22;3578770;40;20056;-63
2022/10/14 09:45:15;;;;;;;7.18;6.47;;;;;;;16.23;84.98;100883.75;3581958;40;20056;-62
2022/10/14 09:47:55;;;;;;;8.38;6.53;;;;;;;16.27;84.83;100884.41;3583097;40;20104;-63
2022/10/14 09:50:43;;;;;;;6.88;6.18;;;;;;;16.30;86.10;100894.09;3581061;40;20048;-62
2022/10/14 09:53:48;;;;;;;6.90;6.18;;;;;;;16.26;84.66;100893.50;3579079;40;20052;-62
2022/10/14 09:56:15;;;;;;;7.55;6.20;;;;;;;16.25;85.98;100884.50;3575605;40;20057;-62
2022/10/14 09:58:55;;;;;;;58.78;42.58;;;;;;;16.26;85.61;100882.66;3580496;40;20056;-62
2022/10/14 10:01:39;;;;;;;27.48;18.13;;;;;;;16.27;85.59;100884.41;3576850;40;20108;-62
2022/10/14 10:04:46;;;;;;;13.52;10.50;;;;;;;16.29;86.29;100882.38;3582877;40;20097;-62
2022/10/14 10:07:33;;;;;;;11.57;8.52;;;;;;;16.28;85.91;100877.97;3580700;40;20044;-62
2022/10/14 10:10:17;;;;;;;7.72;6.90;;;;;;;15.68;85.91;100781.84;3581596;40;20142;-63
2022/10/14 10:12:45;;;;;;;8.68;6.82;;;;;;;16.28;86.31;100877.13;3574331;40;20389;-63
2022/10/14 10:15:20;;;;;;;7.85;7.07;;;;;;;16.21;86.09;100860.50;3576784;40;20051;-63
2022/10/14 10:17:47;;;;;;;8.30;6.85;;;;;;;16.31;85.98;100888.56;3576738;40;20137;-63
2022/10/14 10:20:34;;;;;;;8.13;7.25;;;;;;;15.68;86.21;100769.16;3585922;40;20062;-63
2022/10/14 10:23:18;;;;;;;7.93;6.50;;;;;;;16.25;85.53;100861.94;3582548;40;20072;-63
2022/10/14 10:25:44;;;;;;;8.32;6.50;;;;;;;16.27;87.02;100862.69;3577546;40;20111;-63
2022/10/14 10:28:31;;;;;;;7.05;6.35;;;;;;;16.29;86.08;100863.41;3581403;40;20052;-63
2022/10/14 10:31:25;;;;;;;8.00;7.20;;;;;;;16.26;86.78;100860.94;3582454;40;20088;-63
2022/10/14 10:34:18;;;;;;;8.95;6.85;;;;;;;16.26;86.95;100852.81;3582194;40;20052;-63
2022/10/14 10:37:03;;;;;;;7.65;6.75;;;;;;;16.28;87.23;100852.69;3580633;40;20056;-63
2022/10/14 10:40:03;;;;;;;7.35;6.47;;;;;;;16.31;86.54;100850.56;3578707;40;20048;-63
2022/10/14 10:43:12;;;;;;;8.57;7.03;;;;;;;16.40;87.81;100849.78;3582508;40;20048;-63
2022/10/14 10:46:02;;;;;;;6.95;5.93;;;;;;;16.42;87.77;100855.94;3564230;40;20056;-63
2022/10/14 10:48:44;;;;;;;9.48;6.00;;;;;;;16.45;86.99;100846.66;3583588;40;20150;-62
2022/10/14 10:51:26;;;;;;;7.63;6.82;;;;;;;16.45;88.32;100844.81;3579675;40;20081;-62
2022/10/14 10:54:01;;;;;;;6.97;6.03;;;;;;;16.43;86.89;100838.69;3580294;40;20078;-61
2022/10/14 10:56:40;;;;;;;6.57;5.93;;;;;;;16.41;87.95;100843.38;3578783;40;20395;-60
2022/10/14 10:59:35;;;;;;;6.97;6.28;;;;;;;16.44;88.60;100834.09;3577534;40;20070;-62
2022/10/14 11:02:32;;;;;;;5.78;5.25;;;;;;;16.40;87.71;100841.66;3579189;40;20040;-62
2022/10/14 11:05:16;;;;;;;5.60;5.10;;;;;;;16.39;88.86;100836.34;3578548;40;20103;-62
2022/10/14 11:12:27;;;;;;;6.25;5.75;;;;;;;16.41;88.96;100834.38;3519126;40;20138;-62
2022/10/14 11:15:24;;;;;;;6.47;5.88;;;;;;;16.43;88.51;100830.53;3575852;40;20270;-62
2022/10/14 11:18:11;;;;;;;7.10;6.50;;;;;;;16.39;88.08;100823.63;3580580;40;20056;-62
2022/10/14 11:21:07;;;;;;;7.65;7.05;;;;;;;16.40;88.39;100828.09;3583590;40;20124;-62
2022/10/14 11:23:47;;;;;;;8.20;7.30;;;;;;;16.37;88.52;100822.94;3580402;40;20060;-63
2022/10/14 11:26:37;;;;;;;8.73;8.02;;;;;;;16.40;88.26;100828.09;3583432;40;20055;-62
2022/10/14 11:29:24;;;;;;;9.65;8.65;;;;;;;16.39;88.98;100826.34;3580570;40;20291;-63
2022/10/14 11:32:14;;;;;;;9.75;8.80;;;;;;;16.41;88.92;100816.22;3581819;40;20084;-63
2022/10/14 11:35:21;;;;;;;8.90;8.10;;;;;;;16.44;88.71;100818.69;3583013;40;20048;-63
2022/10/14 11:38:31;;;;;;;8.98;8.07;;;;;;;16.42;88.04;100801.66;3580303;40;20052;-64
2022/10/14 11:41:26;;;;;;;9.15;8.38;;;;;;;15.74;88.62;100691.91;3581355;40;20064;-64
2022/10/14 11:44:21;;;;;;;9.90;9.00;;;;;;;16.48;88.40;100794.84;3579292;40;20100;-65
2022/10/14 11:46:57;;;;;;;14.55;13.05;;;;;;;16.50;88.65;100795.59;3579985;40;20118;-65